sensor_id;sensor_type;location;lat;lon;timestamp;P1;durP1;ratioP1;P2;durP2;ratioP2
8159;SDS011;27404;52.398;9.646;2023-08-20T00:00:06;12.97;;;10.47;;
8159;SDS011;27404;52.398;9.646;2023-08-20T00:02:33;14.27;;;10.93;;
8159;SDS011;27404;52.398;9.646;2023-08-20T00:05:02;11.80;;;9.50;;
8159;SDS011;27404;52.398;9.646;2023-08-20T00:07:31;13.87;;;10.70;;
8159;SDS011;27404;52.398;9.646;2023-08-20T00:09:57;17.63;;;11.87;;
8159;SDS011;27404;52.398;9.646;2023-08-20T00:12:23;15.70;;;11.53;;
8159;SDS011;27404;52.398;9.646;2023-08-20T00:14:53;14.93;;;11.20;;
8159;SDS011;27404;52.398;9.646;2023-08-20T00:17:34;12.23;;;9.83;;
8159;SDS011;27404;52.398;9.646;2023-08-20T00:20:01;14.50;;;9.82;;
8159;SDS011;27404;52.398;9.646;2023-08-20T00:22:34;11.77;;;7.77;;
8159;SDS011;27404;52.398;9.646;2023-08-20T00:25:00;11.70;;;7.70;;
8159;SDS011;27404;52.398;9.646;2023-08-20T00:27:27;9.73;;;7.43;;
8159;SDS011;27404;52.398;9.646;2023-08-20T00:29:53;7.93;;;5.80;;
8159;SDS011;27404;52.398;9.646;2023-08-20T00:32:18;6.83;;;5.20;;
8159;SDS011;27404;52.398;9.646;2023-08-20T00:34:44;7.63;;;5.00;;
8159;SDS011;27404;52.398;9.646;2023-08-20T00:37:09;7.67;;;4.80;;
8159;SDS011;27404;52.398;9.646;2023-08-20T00:39:35;11.00;;;5.60;;
8159;SDS011;27404;52.398;9.646;2023-08-20T00:42:00;5.77;;;4.77;;
8159;SDS011;27404;52.398;9.646;2023-08-20T00:44:25;6.90;;;4.00;;
8159;SDS011;27404;52.398;9.646;2023-08-20T00:46:51;5.90;;;4.13;;
8159;SDS011;27404;52.398;9.646;2023-08-20T00:49:18;7.23;;;3.83;;
8159;SDS011;27404;52.398;9.646;2023-08-20T00:51:43;6.00;;;4.03;;
8159;SDS011;27404;52.398;9.646;2023-08-20T00:54:10;6.10;;;3.90;;
8159;SDS011;27404;52.398;9.646;2023-08-20T00:56:36;6.63;;;3.63;;
8159;SDS011;27404;52.398;9.646;2023-08-20T00:59:03;5.33;;;3.70;;
8159;SDS011;27404;52.398;9.646;2023-08-20T01:01:30;8.20;;;3.77;;
8159;SDS011;27404;52.398;9.646;2023-08-20T01:03:56;5.87;;;3.67;;
8159;SDS011;27404;52.398;9.646;2023-08-20T01:12:06;6.63;;;3.83;;
8159;SDS011;27404;52.398;9.646;2023-08-20T01:14:32;4.20;;;2.73;;
8159;SDS011;27404;52.398;9.646;2023-08-20T01:16:57;4.17;;;3.33;;
8159;SDS011;27404;52.398;9.646;2023-08-20T01:19:23;6.83;;;3.00;;
8159;SDS011;27404;52.398;9.646;2023-08-20T01:30:14;5.17;;;3.00;;
8159;SDS011;27404;52.398;9.646;2023-08-20T01:32:40;5.93;;;3.00;;
8159;SDS011;27404;52.398;9.646;2023-08-20T01:35:16;5.53;;;3.03;;
8159;SDS011;27404;52.398;9.646;2023-08-20T01:37:42;5.33;;;3.10;;
8159;SDS011;27404;52.398;9.646;2023-08-20T01:40:08;6.70;;;3.13;;
8159;SDS011;27404;52.398;9.646;2023-08-20T01:42:37;5.27;;;3.17;;
8159;SDS011;27404;52.398;9.646;2023-08-20T01:45:03;7.83;;;3.00;;
8159;SDS011;27404;52.398;9.646;2023-08-20T01:47:29;4.27;;;3.10;;
8159;SDS011;27404;52.398;9.646;2023-08-20T01:49:55;5.87;;;3.23;;
8159;SDS011;27404;52.398;9.646;2023-08-20T01:52:20;5.33;;;2.97;;
8159;SDS011;27404;52.398;9.646;2023-08-20T01:54:46;7.97;;;3.23;;
8159;SDS011;27404;52.398;9.646;2023-08-20T01:57:12;8.23;;;2.97;;
8159;SDS011;27404;52.398;9.646;2023-08-20T01:59:38;4.80;;;3.20;;
8159;SDS011;27404;52.398;9.646;2023-08-20T02:02:04;6.67;;;3.00;;
8159;SDS011;27404;52.398;9.646;2023-08-20T02:04:31;7.00;;;3.47;;
8159;SDS011;27404;52.398;9.646;2023-08-20T02:06:56;6.10;;;3.03;;
8159;SDS011;27404;52.398;9.646;2023-08-20T02:09:22;5.60;;;3.40;;
8159;SDS011;27404;52.398;9.646;2023-08-20T02:11:47;5.37;;;3.30;;
8159;SDS011;27404;52.398;9.646;2023-08-20T02:14:13;6.80;;;3.20;;
8159;SDS011;27404;52.398;9.646;2023-08-20T02:16:38;5.67;;;3.10;;
8159;SDS011;27404;52.398;9.646;2023-08-20T02:19:05;5.37;;;3.50;;
8159;SDS011;27404;52.398;9.646;2023-08-20T02:21:31;4.60;;;3.37;;
8159;SDS011;27404;52.398;9.646;2023-08-20T02:23:57;7.27;;;3.57;;
8159;SDS011;27404;52.398;9.646;2023-08-20T02:26:22;4.33;;;3.50;;
8159;SDS011;27404;52.398;9.646;2023-08-20T02:28:48;4.70;;;3.20;;
8159;SDS011;27404;52.398;9.646;2023-08-20T02:31:13;3.93;;;2.90;;
8159;SDS011;27404;52.398;9.646;2023-08-20T02:33:39;6.30;;;3.53;;
8159;SDS011;27404;52.398;9.646;2023-08-20T02:36:04;5.77;;;3.17;;
8159;SDS011;27404;52.398;9.646;2023-08-20T02:38:30;5.77;;;3.43;;
8159;SDS011;27404;52.398;9.646;2023-08-20T02:40:56;3.50;;;2.83;;
8159;SDS011;27404;52.398;9.646;2023-08-20T02:43:21;6.83;;;3.30;;
8159;SDS011;27404;52.398;9.646;2023-08-20T02:45:47;6.30;;;3.77;;
8159;SDS011;27404;52.398;9.646;2023-08-20T02:48:13;6.97;;;3.47;;
8159;SDS011;27404;52.398;9.646;2023-08-20T02:50:39;5.43;;;3.10;;
8159;SDS011;27404;52.398;9.646;2023-08-20T02:53:05;7.47;;;3.97;;
8159;SDS011;27404;52.398;9.646;2023-08-20T02:55:31;6.40;;;3.37;;
8159;SDS011;27404;52.398;9.646;2023-08-20T02:57:57;6.17;;;3.33;;
8159;SDS011;27404;52.398;9.646;2023-08-20T03:00:23;4.40;;;2.90;;
8159;SDS011;27404;52.398;9.646;2023-08-20T03:02:48;5.40;;;3.30;;
8159;SDS011;27404;52.398;9.646;2023-08-20T03:05:14;5.60;;;3.30;;
8159;SDS011;27404;52.398;9.646;2023-08-20T03:07:39;5.03;;;3.20;;
8159;SDS011;27404;52.398;9.646;2023-08-20T03:10:05;5.20;;;3.37;;
8159;SDS011;27404;52.398;9.646;2023-08-20T03:12:31;9.33;;;3.70;;
8159;SDS011;27404;52.398;9.646;2023-08-20T03:14:56;5.53;;;3.40;;
8159;SDS011;27404;52.398;9.646;2023-08-20T03:17:23;9.30;;;3.83;;
8159;SDS011;27404;52.398;9.646;2023-08-20T03:19:58;5.53;;;3.77;;
8159;SDS011;27404;52.398;9.646;2023-08-20T03:22:25;8.10;;;3.33;;
8159;SDS011;27404;52.398;9.646;2023-08-20T03:24:52;7.40;;;3.80;;
8159;SDS011;27404;52.398;9.646;2023-08-20T03:27:18;7.73;;;3.73;;
8159;SDS011;27404;52.398;9.646;2023-08-20T03:29:44;7.30;;;3.37;;
8159;SDS011;27404;52.398;9.646;2023-08-20T03:32:10;4.73;;;3.27;;
8159;SDS011;27404;52.398;9.646;2023-08-20T03:34:36;8.00;;;4.43;;
8159;SDS011;27404;52.398;9.646;2023-08-20T03:37:02;5.83;;;3.23;;
8159;SDS011;27404;52.398;9.646;2023-08-20T03:39:28;4.53;;;3.17;;
8159;SDS011;27404;52.398;9.646;2023-08-20T03:41:53;5.50;;;4.43;;
8159;SDS011;27404;52.398;9.646;2023-08-20T03:44:19;7.57;;;3.77;;
8159;SDS011;27404;52.398;9.646;2023-08-20T03:46:44;5.37;;;3.57;;
8159;SDS011;27404;52.398;9.646;2023-08-20T03:49:10;5.37;;;3.30;;
8159;SDS011;27404;52.398;9.646;2023-08-20T03:51:35;7.70;;;3.80;;
8159;SDS011;27404;52.398;9.646;2023-08-20T03:54:01;6.50;;;3.63;;
8159;SDS011;27404;52.398;9.646;2023-08-20T03:56:27;6.37;;;3.67;;
8159;SDS011;27404;52.398;9.646;2023-08-20T03:58:52;5.47;;;3.33;;
8159;SDS011;27404;52.398;9.646;2023-08-20T04:01:18;4.20;;;3.30;;
8159;SDS011;27404;52.398;9.646;2023-08-20T04:03:45;8.47;;;4.30;;
8159;SDS011;27404;52.398;9.646;2023-08-20T04:06:11;6.53;;;3.73;;
8159;SDS011;27404;52.398;9.646;2023-08-20T04:08:36;6.40;;;4.50;;
8159;SDS011;27404;52.398;9.646;2023-08-20T04:11:02;6.43;;;4.10;;
8159;SDS011;27404;52.398;9.646;2023-08-20T04:13:28;6.27;;;3.73;;
8159;SDS011;27404;52.398;9.646;2023-08-20T04:15:54;6.60;;;4.10;;
8159;SDS011;27404;52.398;9.646;2023-08-20T04:18:20;6.70;;;4.13;;
8159;SDS011;27404;52.398;9.646;2023-08-20T04:20:45;8.10;;;4.00;;
8159;SDS011;27404;52.398;9.646;2023-08-20T04:23:11;8.17;;;4.13;;
8159;SDS011;27404;52.398;9.646;2023-08-20T04:25:36;6.43;;;4.17;;
8159;SDS011;27404;52.398;9.646;2023-08-20T04:28:02;4.57;;;3.93;;
8159;SDS011;27404;52.398;9.646;2023-08-20T04:30:27;6.97;;;4.10;;
8159;SDS011;27404;52.398;9.646;2023-08-20T04:32:53;7.57;;;3.97;;
8159;SDS011;27404;52.398;9.646;2023-08-20T04:35:18;6.40;;;3.77;;
8159;SDS011;27404;52.398;9.646;2023-08-20T04:37:44;7.83;;;4.37;;
8159;SDS011;27404;52.398;9.646;2023-08-20T04:40:09;9.37;;;4.73;;
8159;SDS011;27404;52.398;9.646;2023-08-20T04:42:35;5.67;;;3.73;;
8159;SDS011;27404;52.398;9.646;2023-08-20T04:45:00;11.03;;;4.40;;
8159;SDS011;27404;52.398;9.646;2023-08-20T04:47:26;6.83;;;3.87;;
8159;SDS011;27404;52.398;9.646;2023-08-20T04:49:52;6.77;;;3.70;;
8159;SDS011;27404;52.398;9.646;2023-08-20T04:52:17;6.23;;;3.97;;
8159;SDS011;27404;52.398;9.646;2023-08-20T04:54:44;6.80;;;3.87;;
8159;SDS011;27404;52.398;9.646;2023-08-20T04:57:09;6.73;;;3.77;;
8159;SDS011;27404;52.398;9.646;2023-08-20T04:59:35;8.23;;;3.97;;
8159;SDS011;27404;52.398;9.646;2023-08-20T05:02:00;8.33;;;3.83;;
8159;SDS011;27404;52.398;9.646;2023-08-20T05:04:26;5.80;;;3.30;;
8159;SDS011;27404;52.398;9.646;2023-08-20T05:06:51;6.57;;;4.23;;
8159;SDS011;27404;52.398;9.646;2023-08-20T05:09:16;8.20;;;4.20;;
8159;SDS011;27404;52.398;9.646;2023-08-20T05:11:42;4.83;;;3.90;;
8159;SDS011;27404;52.398;9.646;2023-08-20T05:14:08;8.93;;;3.80;;
8159;SDS011;27404;52.398;9.646;2023-08-20T05:16:33;6.23;;;3.50;;
8159;SDS011;27404;52.398;9.646;2023-08-20T05:18:58;5.13;;;3.13;;
8159;SDS011;27404;52.398;9.646;2023-08-20T05:21:24;6.60;;;3.10;;
8159;SDS011;27404;52.398;9.646;2023-08-20T05:23:49;8.00;;;3.33;;
8159;SDS011;27404;52.398;9.646;2023-08-20T05:26:15;4.00;;;2.60;;
8159;SDS011;27404;52.398;9.646;2023-08-20T05:28:40;5.00;;;3.00;;
8159;SDS011;27404;52.398;9.646;2023-08-20T05:31:06;5.13;;;3.30;;
8159;SDS011;27404;52.398;9.646;2023-08-20T05:33:31;7.00;;;2.67;;
8159;SDS011;27404;52.398;9.646;2023-08-20T05:35:59;5.97;;;2.83;;
8159;SDS011;27404;52.398;9.646;2023-08-20T05:38:24;3.87;;;2.70;;
8159;SDS011;27404;52.398;9.646;2023-08-20T05:40:50;4.20;;;2.30;;
8159;SDS011;27404;52.398;9.646;2023-08-20T05:43:15;5.83;;;2.97;;
8159;SDS011;27404;52.398;9.646;2023-08-20T05:45:41;4.47;;;2.53;;
8159;SDS011;27404;52.398;9.646;2023-08-20T05:48:07;4.87;;;2.50;;
8159;SDS011;27404;52.398;9.646;2023-08-20T05:50:32;4.93;;;2.47;;
8159;SDS011;27404;52.398;9.646;2023-08-20T05:52:57;5.83;;;2.63;;
8159;SDS011;27404;52.398;9.646;2023-08-20T05:55:23;4.07;;;2.27;;
8159;SDS011;27404;52.398;9.646;2023-08-20T05:57:49;5.93;;;3.07;;
8159;SDS011;27404;52.398;9.646;2023-08-20T06:00:15;5.90;;;2.77;;
8159;SDS011;27404;52.398;9.646;2023-08-20T06:02:43;6.13;;;2.40;;
8159;SDS011;27404;52.398;9.646;2023-08-20T06:05:08;3.00;;;2.00;;
8159;SDS011;27404;52.398;9.646;2023-08-20T06:07:34;5.55;;;2.00;;
8159;SDS011;27404;52.398;9.646;2023-08-20T06:10:00;3.60;;;2.35;;
8159;SDS011;27404;52.398;9.646;2023-08-20T06:12:26;4.22;;;1.60;;
8159;SDS011;27404;52.398;9.646;2023-08-20T06:14:51;2.53;;;1.60;;
8159;SDS011;27404;52.398;9.646;2023-08-20T06:17:17;2.83;;;1.40;;
8159;SDS011;27404;52.398;9.646;2023-08-20T06:19:42;4.20;;;1.70;;
8159;SDS011;27404;52.398;9.646;2023-08-20T06:22:08;2.60;;;1.70;;
8159;SDS011;27404;52.398;9.646;2023-08-20T06:24:33;4.30;;;1.73;;
8159;SDS011;27404;52.398;9.646;2023-08-20T06:26:59;3.85;;;1.67;;
8159;SDS011;27404;52.398;9.646;2023-08-20T06:29:24;3.60;;;1.60;;
8159;SDS011;27404;52.398;9.646;2023-08-20T06:31:49;4.70;;;2.03;;
8159;SDS011;27404;52.398;9.646;2023-08-20T06:34:16;4.70;;;2.33;;
8159;SDS011;27404;52.398;9.646;2023-08-20T06:36:41;5.20;;;2.60;;
8159;SDS011;27404;52.398;9.646;2023-08-20T06:39:07;4.53;;;2.05;;
8159;SDS011;27404;52.398;9.646;2023-08-20T06:41:33;3.90;;;2.10;;
8159;SDS011;27404;52.398;9.646;2023-08-20T06:44:00;5.47;;;2.28;;
8159;SDS011;27404;52.398;9.646;2023-08-20T06:46:25;2.83;;;1.80;;
8159;SDS011;27404;52.398;9.646;2023-08-20T06:48:51;4.72;;;1.90;;
8159;SDS011;27404;52.398;9.646;2023-08-20T06:51:19;3.90;;;1.70;;
8159;SDS011;27404;52.398;9.646;2023-08-20T06:53:45;4.68;;;2.17;;
8159;SDS011;27404;52.398;9.646;2023-08-20T06:56:10;3.50;;;1.77;;
8159;SDS011;27404;52.398;9.646;2023-08-20T06:58:37;4.25;;;2.10;;
8159;SDS011;27404;52.398;9.646;2023-08-20T07:01:04;5.00;;;2.00;;
8159;SDS011;27404;52.398;9.646;2023-08-20T07:03:35;2.55;;;1.63;;
8159;SDS011;27404;52.398;9.646;2023-08-20T07:06:03;4.95;;;1.60;;
8159;SDS011;27404;52.398;9.646;2023-08-20T07:08:28;3.78;;;1.42;;
8159;SDS011;27404;52.398;9.646;2023-08-20T07:10:54;3.95;;;1.70;;
8159;SDS011;27404;52.398;9.646;2023-08-20T07:13:19;4.22;;;1.70;;
8159;SDS011;27404;52.398;9.646;2023-08-20T07:15:45;3.80;;;1.88;;
8159;SDS011;27404;52.398;9.646;2023-08-20T07:18:10;3.85;;;1.88;;
8159;SDS011;27404;52.398;9.646;2023-08-20T07:20:38;4.78;;;1.92;;
8159;SDS011;27404;52.398;9.646;2023-08-20T07:23:04;5.47;;;1.92;;
8159;SDS011;27404;52.398;9.646;2023-08-20T07:25:30;4.38;;;1.85;;
8159;SDS011;27404;52.398;9.646;2023-08-20T07:27:55;4.63;;;1.80;;
8159;SDS011;27404;52.398;9.646;2023-08-20T07:30:24;3.30;;;1.60;;
8159;SDS011;27404;52.398;9.646;2023-08-20T07:32:50;4.10;;;2.00;;
8159;SDS011;27404;52.398;9.646;2023-08-20T07:35:19;4.60;;;1.80;;
8159;SDS011;27404;52.398;9.646;2023-08-20T07:37:44;5.50;;;1.80;;
8159;SDS011;27404;52.398;9.646;2023-08-20T07:40:11;5.88;;;1.83;;
8159;SDS011;27404;52.398;9.646;2023-08-20T07:42:37;3.25;;;1.60;;
8159;SDS011;27404;52.398;9.646;2023-08-20T07:45:03;4.00;;;1.85;;
8159;SDS011;27404;52.398;9.646;2023-08-20T07:47:29;3.67;;;2.10;;
8159;SDS011;27404;52.398;9.646;2023-08-20T07:49:54;2.72;;;1.75;;
8159;SDS011;27404;52.398;9.646;2023-08-20T07:52:20;4.85;;;2.45;;
8159;SDS011;27404;52.398;9.646;2023-08-20T07:54:46;3.60;;;1.98;;
8159;SDS011;27404;52.398;9.646;2023-08-20T07:57:11;6.00;;;2.15;;
8159;SDS011;27404;52.398;9.646;2023-08-20T07:59:37;5.93;;;2.15;;
8159;SDS011;27404;52.398;9.646;2023-08-20T08:02:03;4.93;;;1.92;;
8159;SDS011;27404;52.398;9.646;2023-08-20T08:04:29;4.32;;;2.80;;
8159;SDS011;27404;52.398;9.646;2023-08-20T08:06:54;4.43;;;2.00;;
8159;SDS011;27404;52.398;9.646;2023-08-20T08:09:30;4.93;;;2.00;;
8159;SDS011;27404;52.398;9.646;2023-08-20T08:11:56;4.10;;;1.90;;
8159;SDS011;27404;52.398;9.646;2023-08-20T08:14:23;4.60;;;1.70;;
8159;SDS011;27404;52.398;9.646;2023-08-20T08:16:49;6.13;;;2.00;;
8159;SDS011;27404;52.398;9.646;2023-08-20T08:19:15;3.47;;;1.83;;
8159;SDS011;27404;52.398;9.646;2023-08-20T08:21:41;5.50;;;1.77;;
8159;SDS011;27404;52.398;9.646;2023-08-20T08:24:08;5.97;;;2.40;;
8159;SDS011;27404;52.398;9.646;2023-08-20T08:26:33;4.35;;;2.13;;
8159;SDS011;27404;52.398;9.646;2023-08-20T08:29:01;7.57;;;2.22;;
8159;SDS011;27404;52.398;9.646;2023-08-20T08:31:27;3.70;;;2.35;;
8159;SDS011;27404;52.398;9.646;2023-08-20T08:33:52;4.10;;;2.53;;
8159;SDS011;27404;52.398;9.646;2023-08-20T08:36:18;4.20;;;2.40;;
8159;SDS011;27404;52.398;9.646;2023-08-20T08:38:44;3.92;;;2.08;;
8159;SDS011;27404;52.398;9.646;2023-08-20T08:41:13;6.05;;;2.45;;
8159;SDS011;27404;52.398;9.646;2023-08-20T08:43:39;3.45;;;1.73;;
8159;SDS011;27404;52.398;9.646;2023-08-20T08:46:14;5.28;;;2.30;;
8159;SDS011;27404;52.398;9.646;2023-08-20T08:48:42;7.35;;;2.40;;
8159;SDS011;27404;52.398;9.646;2023-08-20T08:51:09;5.22;;;2.30;;
8159;SDS011;27404;52.398;9.646;2023-08-20T08:53:35;5.50;;;2.08;;
8159;SDS011;27404;52.398;9.646;2023-08-20T08:56:01;3.67;;;2.13;;
8159;SDS011;27404;52.398;9.646;2023-08-20T08:58:28;3.17;;;1.77;;
8159;SDS011;27404;52.398;9.646;2023-08-20T09:00:53;4.70;;;2.42;;
8159;SDS011;27404;52.398;9.646;2023-08-20T09:03:19;6.10;;;2.00;;
8159;SDS011;27404;52.398;9.646;2023-08-20T09:05:45;3.60;;;1.77;;
8159;SDS011;27404;52.398;9.646;2023-08-20T09:08:18;3.55;;;1.60;;
8159;SDS011;27404;52.398;9.646;2023-08-20T09:10:44;2.58;;;1.73;;
8159;SDS011;27404;52.398;9.646;2023-08-20T09:13:10;3.90;;;2.08;;
8159;SDS011;27404;52.398;9.646;2023-08-20T09:15:36;3.55;;;1.50;;
8159;SDS011;27404;52.398;9.646;2023-08-20T09:18:02;3.80;;;1.60;;
8159;SDS011;27404;52.398;9.646;2023-08-20T09:20:37;2.47;;;1.65;;
8159;SDS011;27404;52.398;9.646;2023-08-20T09:23:03;4.85;;;2.00;;
8159;SDS011;27404;52.398;9.646;2023-08-20T09:25:40;3.10;;;1.75;;
8159;SDS011;27404;52.398;9.646;2023-08-20T09:28:07;3.67;;;1.70;;
8159;SDS011;27404;52.398;9.646;2023-08-20T09:30:32;3.38;;;1.70;;
8159;SDS011;27404;52.398;9.646;2023-08-20T09:33:10;4.32;;;1.80;;
8159;SDS011;27404;52.398;9.646;2023-08-20T09:35:36;5.28;;;2.08;;
8159;SDS011;27404;52.398;9.646;2023-08-20T09:38:03;2.83;;;1.60;;
8159;SDS011;27404;52.398;9.646;2023-08-20T09:40:29;3.58;;;2.00;;
8159;SDS011;27404;52.398;9.646;2023-08-20T09:42:55;5.03;;;2.20;;
8159;SDS011;27404;52.398;9.646;2023-08-20T09:45:23;3.63;;;1.88;;
8159;SDS011;27404;52.398;9.646;2023-08-20T09:47:53;3.78;;;2.00;;
8159;SDS011;27404;52.398;9.646;2023-08-20T09:50:20;2.72;;;1.75;;
8159;SDS011;27404;52.398;9.646;2023-08-20T09:55:29;2.55;;;1.73;;
8159;SDS011;27404;52.398;9.646;2023-08-20T09:57:59;4.78;;;2.40;;
8159;SDS011;27404;52.398;9.646;2023-08-20T10:00:26;3.92;;;2.00;;
8159;SDS011;27404;52.398;9.646;2023-08-20T10:02:53;2.95;;;1.50;;
8159;SDS011;27404;52.398;9.646;2023-08-20T10:05:19;2.72;;;1.85;;
8159;SDS011;27404;52.398;9.646;2023-08-20T10:07:46;3.60;;;1.98;;
8159;SDS011;27404;52.398;9.646;2023-08-20T10:10:12;2.35;;;1.73;;
8159;SDS011;27404;52.398;9.646;2023-08-20T10:12:38;4.55;;;2.03;;
8159;SDS011;27404;52.398;9.646;2023-08-20T10:15:06;3.50;;;1.60;;
8159;SDS011;27404;52.398;9.646;2023-08-20T10:17:33;3.28;;;1.92;;
8159;SDS011;27404;52.398;9.646;2023-08-20T10:20:00;4.53;;;2.03;;
8159;SDS011;27404;52.398;9.646;2023-08-20T10:22:37;3.38;;;1.65;;
8159;SDS011;27404;52.398;9.646;2023-08-20T10:25:07;3.30;;;2.08;;
8159;SDS011;27404;52.398;9.646;2023-08-20T10:27:38;4.07;;;2.03;;
8159;SDS011;27404;52.398;9.646;2023-08-20T10:30:17;3.30;;;2.13;;
8159;SDS011;27404;52.398;9.646;2023-08-20T10:35:18;4.15;;;2.33;;
8159;SDS011;27404;52.398;9.646;2023-08-20T10:38:04;2.28;;;1.77;;
8159;SDS011;27404;52.398;9.646;2023-08-20T10:40:46;2.90;;;1.88;;
8159;SDS011;27404;52.398;9.646;2023-08-20T10:43:27;2.20;;;1.60;;
8159;SDS011;27404;52.398;9.646;2023-08-20T10:48:33;3.15;;;1.70;;
8159;SDS011;27404;52.398;9.646;2023-08-20T10:51:08;2.63;;;1.80;;
8159;SDS011;27404;52.398;9.646;2023-08-20T10:53:39;4.10;;;1.85;;
8159;SDS011;27404;52.398;9.646;2023-08-20T10:56:15;2.28;;;1.50;;
8159;SDS011;27404;52.398;9.646;2023-08-20T10:58:43;3.70;;;1.65;;
8159;SDS011;27404;52.398;9.646;2023-08-20T11:01:20;3.95;;;1.80;;
8159;SDS011;27404;52.398;9.646;2023-08-20T11:03:47;2.88;;;1.60;;
8159;SDS011;27404;52.398;9.646;2023-08-20T11:06:14;5.03;;;1.80;;
8159;SDS011;27404;52.398;9.646;2023-08-20T11:08:40;2.60;;;1.85;;
8159;SDS011;27404;52.398;9.646;2023-08-20T11:11:07;4.03;;;2.15;;
8159;SDS011;27404;52.398;9.646;2023-08-20T11:13:33;3.10;;;1.90;;
8159;SDS011;27404;52.398;9.646;2023-08-20T11:15:59;5.35;;;2.20;;
8159;SDS011;27404;52.398;9.646;2023-08-20T11:18:26;2.78;;;1.85;;
8159;SDS011;27404;52.398;9.646;2023-08-20T11:20:53;4.03;;;2.00;;
8159;SDS011;27404;52.398;9.646;2023-08-20T11:23:19;3.80;;;1.80;;
8159;SDS011;27404;52.398;9.646;2023-08-20T11:25:45;2.58;;;1.92;;
8159;SDS011;27404;52.398;9.646;2023-08-20T11:28:11;2.40;;;1.60;;
8159;SDS011;27404;52.398;9.646;2023-08-20T11:30:36;4.60;;;2.08;;
8159;SDS011;27404;52.398;9.646;2023-08-20T11:33:02;3.30;;;1.88;;
8159;SDS011;27404;52.398;9.646;2023-08-20T11:35:28;2.65;;;1.80;;
8159;SDS011;27404;52.398;9.646;2023-08-20T11:37:53;2.35;;;1.58;;
8159;SDS011;27404;52.398;9.646;2023-08-20T11:40:22;2.95;;;1.83;;
8159;SDS011;27404;52.398;9.646;2023-08-20T11:42:48;4.70;;;2.08;;
8159;SDS011;27404;52.398;9.646;2023-08-20T11:45:14;3.00;;;1.90;;
8159;SDS011;27404;52.398;9.646;2023-08-20T11:47:40;3.85;;;1.98;;
8159;SDS011;27404;52.398;9.646;2023-08-20T11:50:07;3.03;;;2.00;;
8159;SDS011;27404;52.398;9.646;2023-08-20T11:52:34;3.47;;;1.77;;
8159;SDS011;27404;52.398;9.646;2023-08-20T11:55:01;3.40;;;1.90;;
8159;SDS011;27404;52.398;9.646;2023-08-20T11:57:30;3.63;;;1.98;;
8159;SDS011;27404;52.398;9.646;2023-08-20T12:00:00;3.30;;;1.90;;
8159;SDS011;27404;52.398;9.646;2023-08-20T12:02:29;3.47;;;2.10;;
8159;SDS011;27404;52.398;9.646;2023-08-20T12:04:55;3.88;;;2.00;;
8159;SDS011;27404;52.398;9.646;2023-08-20T12:07:25;2.67;;;1.98;;
8159;SDS011;27404;52.398;9.646;2023-08-20T12:09:54;2.88;;;2.15;;
8159;SDS011;27404;52.398;9.646;2023-08-20T12:12:20;3.38;;;2.00;;
8159;SDS011;27404;52.398;9.646;2023-08-20T12:14:46;2.88;;;2.13;;
8159;SDS011;27404;52.398;9.646;2023-08-20T12:17:12;3.15;;;2.10;;
8159;SDS011;27404;52.398;9.646;2023-08-20T12:19:42;3.15;;;2.10;;
8159;SDS011;27404;52.398;9.646;2023-08-20T12:22:08;3.63;;;2.28;;
8159;SDS011;27404;52.398;9.646;2023-08-20T12:24:33;3.47;;;2.00;;
8159;SDS011;27404;52.398;9.646;2023-08-20T12:26:59;4.05;;;2.10;;
8159;SDS011;27404;52.398;9.646;2023-08-20T12:29:24;6.47;;;2.22;;
8159;SDS011;27404;52.398;9.646;2023-08-20T12:31:50;2.78;;;2.15;;
8159;SDS011;27404;52.398;9.646;2023-08-20T12:34:16;4.00;;;2.40;;
8159;SDS011;27404;52.398;9.646;2023-08-20T12:36:41;2.97;;;2.05;;
8159;SDS011;27404;52.398;9.646;2023-08-20T12:39:06;3.50;;;2.10;;
8159;SDS011;27404;52.398;9.646;2023-08-20T12:41:32;3.22;;;2.45;;
8159;SDS011;27404;52.398;9.646;2023-08-20T12:43:58;3.33;;;2.63;;
8159;SDS011;27404;52.398;9.646;2023-08-20T12:46:24;3.25;;;2.30;;
8159;SDS011;27404;52.398;9.646;2023-08-20T12:48:49;2.95;;;2.63;;
8159;SDS011;27404;52.398;9.646;2023-08-20T12:51:16;2.85;;;2.25;;
8159;SDS011;27404;52.398;9.646;2023-08-20T12:53:43;3.63;;;2.40;;
8159;SDS011;27404;52.398;9.646;2023-08-20T12:56:08;3.55;;;2.67;;
8159;SDS011;27404;52.398;9.646;2023-08-20T12:58:34;3.60;;;2.58;;
8159;SDS011;27404;52.398;9.646;2023-08-20T13:00:59;4.65;;;2.47;;
8159;SDS011;27404;52.398;9.646;2023-08-20T13:03:25;4.05;;;2.63;;
8159;SDS011;27404;52.398;9.646;2023-08-20T13:05:52;5.07;;;2.47;;
8159;SDS011;27404;52.398;9.646;2023-08-20T13:08:18;3.75;;;2.40;;
8159;SDS011;27404;52.398;9.646;2023-08-20T13:10:45;4.25;;;2.83;;
8159;SDS011;27404;52.398;9.646;2023-08-20T13:13:17;4.28;;;2.45;;
8159;SDS011;27404;52.398;9.646;2023-08-20T13:15:46;3.28;;;2.58;;
8159;SDS011;27404;52.398;9.646;2023-08-20T13:18:11;4.55;;;2.75;;
8159;SDS011;27404;52.398;9.646;2023-08-20T13:20:39;3.45;;;2.53;;
8159;SDS011;27404;52.398;9.646;2023-08-20T13:23:04;2.58;;;2.38;;
8159;SDS011;27404;52.398;9.646;2023-08-20T13:25:30;3.47;;;2.30;;
8159;SDS011;27404;52.398;9.646;2023-08-20T13:27:56;4.82;;;2.30;;
8159;SDS011;27404;52.398;9.646;2023-08-20T13:30:21;3.03;;;2.33;;
8159;SDS011;27404;52.398;9.646;2023-08-20T13:32:47;2.60;;;2.30;;
8159;SDS011;27404;52.398;9.646;2023-08-20T13:35:12;2.83;;;2.40;;
8159;SDS011;27404;52.398;9.646;2023-08-20T13:37:39;2.60;;;2.30;;
8159;SDS011;27404;52.398;9.646;2023-08-20T13:40:05;4.40;;;2.22;;
8159;SDS011;27404;52.398;9.646;2023-08-20T13:42:33;4.03;;;2.63;;
8159;SDS011;27404;52.398;9.646;2023-08-20T13:44:58;3.13;;;2.20;;
8159;SDS011;27404;52.398;9.646;2023-08-20T13:47:24;3.35;;;2.40;;
8159;SDS011;27404;52.398;9.646;2023-08-20T13:49:49;2.83;;;2.53;;
8159;SDS011;27404;52.398;9.646;2023-08-20T13:52:14;3.85;;;2.30;;
8159;SDS011;27404;52.398;9.646;2023-08-20T13:54:40;6.03;;;2.80;;
8159;SDS011;27404;52.398;9.646;2023-08-20T13:57:05;3.10;;;2.30;;
8159;SDS011;27404;52.398;9.646;2023-08-20T13:59:31;4.43;;;2.75;;
8159;SDS011;27404;52.398;9.646;2023-08-20T14:01:57;3.40;;;2.30;;
8159;SDS011;27404;52.398;9.646;2023-08-20T14:04:23;3.10;;;2.25;;
8159;SDS011;27404;52.398;9.646;2023-08-20T14:06:49;2.75;;;2.40;;
8159;SDS011;27404;52.398;9.646;2023-08-20T14:09:14;3.42;;;2.92;;
8159;SDS011;27404;52.398;9.646;2023-08-20T14:11:43;2.80;;;2.47;;
8159;SDS011;27404;52.398;9.646;2023-08-20T14:14:08;2.90;;;2.47;;
8159;SDS011;27404;52.398;9.646;2023-08-20T14:16:33;3.17;;;2.67;;
8159;SDS011;27404;52.398;9.646;2023-08-20T14:18:59;3.80;;;2.67;;
8159;SDS011;27404;52.398;9.646;2023-08-20T14:21:25;3.67;;;2.60;;
8159;SDS011;27404;52.398;9.646;2023-08-20T14:23:50;4.40;;;2.50;;
8159;SDS011;27404;52.398;9.646;2023-08-20T14:26:17;3.58;;;2.40;;
8159;SDS011;27404;52.398;9.646;2023-08-20T14:28:43;4.47;;;2.70;;
8159;SDS011;27404;52.398;9.646;2023-08-20T14:31:08;5.32;;;2.55;;
8159;SDS011;27404;52.398;9.646;2023-08-20T14:33:34;3.03;;;2.53;;
8159;SDS011;27404;52.398;9.646;2023-08-20T14:35:59;4.15;;;3.00;;
8159;SDS011;27404;52.398;9.646;2023-08-20T14:38:25;5.18;;;2.75;;
8159;SDS011;27404;52.398;9.646;2023-08-20T14:40:51;3.95;;;2.50;;
8159;SDS011;27404;52.398;9.646;2023-08-20T14:43:16;6.20;;;2.40;;
8159;SDS011;27404;52.398;9.646;2023-08-20T14:45:41;5.25;;;2.42;;
8159;SDS011;27404;52.398;9.646;2023-08-20T14:48:07;3.38;;;2.30;;
8159;SDS011;27404;52.398;9.646;2023-08-20T14:50:33;2.78;;;2.05;;
8159;SDS011;27404;52.398;9.646;2023-08-20T14:52:59;2.70;;;2.40;;
8159;SDS011;27404;52.398;9.646;2023-08-20T14:55:24;3.28;;;2.30;;
8159;SDS011;27404;52.398;9.646;2023-08-20T14:57:50;3.28;;;2.60;;
8159;SDS011;27404;52.398;9.646;2023-08-20T15:00:15;3.80;;;2.60;;
8159;SDS011;27404;52.398;9.646;2023-08-20T15:02:45;7.35;;;2.88;;
8159;SDS011;27404;52.398;9.646;2023-08-20T15:05:11;3.15;;;2.50;;
8159;SDS011;27404;52.398;9.646;2023-08-20T15:07:37;3.40;;;2.50;;
8159;SDS011;27404;52.398;9.646;2023-08-20T15:10:02;5.22;;;2.78;;
8159;SDS011;27404;52.398;9.646;2023-08-20T15:12:31;2.80;;;2.45;;
8159;SDS011;27404;52.398;9.646;2023-08-20T15:14:58;6.35;;;2.80;;
8159;SDS011;27404;52.398;9.646;2023-08-20T15:17:23;4.57;;;2.40;;